sensor_id;sensor_type;location;lat;lon;timestamp;P1;durP1;ratioP1;P2;durP2;ratioP2
19946;SDS011;10135;50.702;7.276;2023-10-19T05:02:02;4.30;;;4.00;;
19946;SDS011;10135;50.702;7.276;2023-10-19T05:04:05;4.40;;;4.10;;
19946;SDS011;10135;50.702;7.276;2023-10-19T05:06:06;5.67;;;4.50;;
19946;SDS011;10135;50.702;7.276;2023-10-19T05:08:08;6.07;;;4.33;;
19946;SDS011;10135;50.702;7.276;2023-10-19T05:10:09;6.57;;;4.67;;
19946;SDS011;10135;50.702;7.276;2023-10-19T05:12:11;5.13;;;4.63;;
19946;SDS011;10135;50.702;7.276;2023-10-19T05:14:14;5.53;;;4.83;;
19946;SDS011;10135;50.702;7.276;2023-10-19T05:16:15;7.23;;;5.50;;
19946;SDS011;10135;50.702;7.276;2023-10-19T05:18:15;6.13;;;5.17;;
19946;SDS011;10135;50.702;7.276;2023-10-19T05:20:16;6.40;;;5.30;;
19946;SDS011;10135;50.702;7.276;2023-10-19T05:22:17;7.53;;;5.47;;
19946;SDS011;10135;50.702;7.276;2023-10-19T05:24:18;5.80;;;5.20;;
19946;SDS011;10135;50.702;7.276;2023-10-19T05:26:19;8.40;;;5.60;;
19946;SDS011;10135;50.702;7.276;2023-10-19T05:28:20;7.57;;;5.90;;
19946;SDS011;10135;50.702;7.276;2023-10-19T05:30:21;7.43;;;5.50;;
19946;SDS011;10135;50.702;7.276;2023-10-19T05:32:22;8.20;;;5.33;;
19946;SDS011;10135;50.702;7.276;2023-10-19T05:34:24;6.80;;;5.10;;
19946;SDS011;10135;50.702;7.276;2023-10-19T05:36:29;7.83;;;5.47;;
19946;SDS011;10135;50.702;7.276;2023-10-19T05:38:29;6.20;;;5.53;;
19946;SDS011;10135;50.702;7.276;2023-10-19T05:40:32;5.77;;;5.17;;
19946;SDS011;10135;50.702;7.276;2023-10-19T05:42:33;6.13;;;5.20;;
19946;SDS011;10135;50.702;7.276;2023-10-19T05:44:34;5.73;;;5.23;;
19946;SDS011;10135;50.702;7.276;2023-10-19T05:46:35;6.87;;;5.70;;
19946;SDS011;10135;50.702;7.276;2023-10-19T05:48:36;8.20;;;5.37;;
19946;SDS011;10135;50.702;7.276;2023-10-19T05:50:36;8.90;;;5.63;;
19946;SDS011;10135;50.702;7.276;2023-10-19T05:52:37;7.10;;;5.30;;
19946;SDS011;10135;50.702;7.276;2023-10-19T05:54:38;8.83;;;5.00;;
19946;SDS011;10135;50.702;7.276;2023-10-19T05:56:38;9.63;;;5.40;;
19946;SDS011;10135;50.702;7.276;2023-10-19T05:58:39;8.87;;;5.20;;
19946;SDS011;10135;50.702;7.276;2023-10-19T06:00:40;6.37;;;4.97;;
19946;SDS011;10135;50.702;7.276;2023-10-19T06:02:43;6.00;;;5.07;;
19946;SDS011;10135;50.702;7.276;2023-10-19T06:04:45;8.87;;;5.67;;
19946;SDS011;10135;50.702;7.276;2023-10-19T06:06:45;6.50;;;5.10;;
19946;SDS011;10135;50.702;7.276;2023-10-19T06:08:46;6.53;;;4.73;;
19946;SDS011;10135;50.702;7.276;2023-10-19T06:10:50;6.67;;;4.77;;
19946;SDS011;10135;50.702;7.276;2023-10-19T06:12:52;5.37;;;4.50;;
19946;SDS011;10135;50.702;7.276;2023-10-19T06:14:53;5.83;;;5.20;;
19946;SDS011;10135;50.702;7.276;2023-10-19T06:16:53;8.40;;;5.10;;
19946;SDS011;10135;50.702;7.276;2023-10-19T06:18:54;5.80;;;4.53;;
19946;SDS011;10135;50.702;7.276;2023-10-19T06:20:55;6.70;;;4.47;;
19946;SDS011;10135;50.702;7.276;2023-10-19T06:22:56;5.57;;;4.80;;
19946;SDS011;10135;50.702;7.276;2023-10-19T06:25:04;4.43;;;4.03;;
19946;SDS011;10135;50.702;7.276;2023-10-19T06:27:05;4.70;;;4.17;;
19946;SDS011;10135;50.702;7.276;2023-10-19T06:29:06;7.07;;;4.80;;
19946;SDS011;10135;50.702;7.276;2023-10-19T06:31:06;4.63;;;4.23;;
19946;SDS011;10135;50.702;7.276;2023-10-19T06:33:07;5.00;;;3.83;;
19946;SDS011;10135;50.702;7.276;2023-10-19T06:35:08;4.60;;;3.93;;
19946;SDS011;10135;50.702;7.276;2023-10-19T06:37:11;4.67;;;3.97;;
19946;SDS011;10135;50.702;7.276;2023-10-19T06:39:11;4.17;;;3.50;;
19946;SDS011;10135;50.702;7.276;2023-10-19T06:41:13;4.43;;;4.03;;
19946;SDS011;10135;50.702;7.276;2023-10-19T06:43:15;8.13;;;4.40;;
19946;SDS011;10135;50.702;7.276;2023-10-19T06:45:16;7.67;;;3.93;;
19946;SDS011;10135;50.702;7.276;2023-10-19T06:47:18;4.87;;;4.03;;
19946;SDS011;10135;50.702;7.276;2023-10-19T06:49:20;3.97;;;3.60;;
19946;SDS011;10135;50.702;7.276;2023-10-19T06:51:21;5.20;;;3.70;;
19946;SDS011;10135;50.702;7.276;2023-10-19T06:53:22;5.53;;;3.97;;
19946;SDS011;10135;50.702;7.276;2023-10-19T06:55:23;5.37;;;3.70;;
19946;SDS011;10135;50.702;7.276;2023-10-19T06:57:23;4.37;;;3.30;;
19946;SDS011;10135;50.702;7.276;2023-10-19T06:59:24;4.67;;;3.80;;
19946;SDS011;10135;50.702;7.276;2023-10-19T07:01:25;5.27;;;3.70;;
19946;SDS011;10135;50.702;7.276;2023-10-19T07:03:26;3.77;;;3.40;;
19946;SDS011;10135;50.702;7.276;2023-10-19T07:05:30;4.10;;;3.63;;
19946;SDS011;10135;50.702;7.276;2023-10-19T07:07:31;3.07;;;2.80;;
19946;SDS011;10135;50.702;7.276;2023-10-19T07:09:31;3.37;;;3.07;;
19946;SDS011;10135;50.702;7.276;2023-10-19T07:11:34;6.37;;;3.53;;
19946;SDS011;10135;50.702;7.276;2023-10-19T07:13:35;4.30;;;3.50;;
19946;SDS011;10135;50.702;7.276;2023-10-19T07:15:36;4.50;;;3.27;;
19946;SDS011;10135;50.702;7.276;2023-10-19T07:17:36;4.57;;;3.70;;
19946;SDS011;10135;50.702;7.276;2023-10-19T07:19:42;3.77;;;3.37;;
19946;SDS011;10135;50.702;7.276;2023-10-19T07:21:43;3.57;;;3.00;;
19946;SDS011;10135;50.702;7.276;2023-10-19T07:23:48;6.43;;;3.57;;
19946;SDS011;10135;50.702;7.276;2023-10-19T07:25:52;4.53;;;3.37;;
19946;SDS011;10135;50.702;7.276;2023-10-19T07:27:56;4.40;;;3.17;;
19946;SDS011;10135;50.702;7.276;2023-10-19T07:30:00;5.47;;;3.13;;
19946;SDS011;10135;50.702;7.276;2023-10-19T07:32:05;3.33;;;3.03;;
19946;SDS011;10135;50.702;7.276;2023-10-19T07:34:05;3.20;;;2.83;;
19946;SDS011;10135;50.702;7.276;2023-10-19T07:36:14;4.37;;;2.93;;
19946;SDS011;10135;50.702;7.276;2023-10-19T07:38:15;3.70;;;3.00;;
19946;SDS011;10135;50.702;7.276;2023-10-19T07:40:16;4.97;;;3.10;;
19946;SDS011;10135;50.702;7.276;2023-10-19T07:42:18;3.13;;;2.80;;
19946;SDS011;10135;50.702;7.276;2023-10-19T07:44:18;2.80;;;2.60;;
19946;SDS011;10135;50.702;7.276;2023-10-19T07:46:19;2.70;;;2.50;;
19946;SDS011;10135;50.702;7.276;2023-10-19T07:48:21;3.43;;;2.73;;
19946;SDS011;10135;50.702;7.276;2023-10-19T07:50:22;3.30;;;3.07;;
19946;SDS011;10135;50.702;7.276;2023-10-19T07:52:23;3.27;;;2.80;;
19946;SDS011;10135;50.702;7.276;2023-10-19T07:54:23;3.30;;;3.07;;
19946;SDS011;10135;50.702;7.276;2023-10-19T07:56:24;2.90;;;2.80;;
19946;SDS011;10135;50.702;7.276;2023-10-19T07:58:24;3.33;;;3.00;;
19946;SDS011;10135;50.702;7.276;2023-10-19T08:00:27;3.07;;;2.77;;
19946;SDS011;10135;50.702;7.276;2023-10-19T08:02:29;3.33;;;3.00;;
19946;SDS011;10135;50.702;7.276;2023-10-19T08:04:30;3.77;;;2.70;;
19946;SDS011;10135;50.702;7.276;2023-10-19T08:06:31;4.00;;;2.67;;
19946;SDS011;10135;50.702;7.276;2023-10-19T08:08:32;4.00;;;2.70;;
19946;SDS011;10135;50.702;7.276;2023-10-19T08:10:35;3.50;;;2.90;;
19946;SDS011;10135;50.702;7.276;2023-10-19T08:12:40;3.03;;;2.83;;
19946;SDS011;10135;50.702;7.276;2023-10-19T08:14:42;4.23;;;2.70;;
19946;SDS011;10135;50.702;7.276;2023-10-19T08:16:42;2.67;;;2.53;;
19946;SDS011;10135;50.702;7.276;2023-10-19T08:18:43;2.80;;;2.60;;
19946;SDS011;10135;50.702;7.276;2023-10-19T08:20:44;3.40;;;2.40;;
19946;SDS011;10135;50.702;7.276;2023-10-19T08:22:45;5.13;;;2.40;;
19946;SDS011;10135;50.702;7.276;2023-10-19T08:24:46;3.83;;;2.50;;
19946;SDS011;10135;50.702;7.276;2023-10-19T08:26:47;2.63;;;2.43;;
19946;SDS011;10135;50.702;7.276;2023-10-19T08:28:48;4.27;;;2.50;;
19946;SDS011;10135;50.702;7.276;2023-10-19T08:30:49;2.93;;;2.40;;
19946;SDS011;10135;50.702;7.276;2023-10-19T08:32:56;2.67;;;2.47;;
19946;SDS011;10135;50.702;7.276;2023-10-19T08:34:58;2.93;;;2.20;;
19946;SDS011;10135;50.702;7.276;2023-10-19T08:37:00;3.23;;;2.40;;
19946;SDS011;10135;50.702;7.276;2023-10-19T08:39:00;3.30;;;2.10;;
19946;SDS011;10135;50.702;7.276;2023-10-19T08:41:05;7.77;;;3.03;;
19946;SDS011;10135;50.702;7.276;2023-10-19T08:43:06;42.80;;;6.63;;
19946;SDS011;10135;50.702;7.276;2023-10-19T08:45:13;8.50;;;2.57;;
19946;SDS011;10135;50.702;7.276;2023-10-19T08:47:16;6.23;;;2.70;;
19946;SDS011;10135;50.702;7.276;2023-10-19T08:49:16;4.53;;;2.07;;
19946;SDS011;10135;50.702;7.276;2023-10-19T08:51:19;2.83;;;2.37;;
19946;SDS011;10135;50.702;7.276;2023-10-19T08:53:20;5.97;;;2.17;;
19946;SDS011;10135;50.702;7.276;2023-10-19T08:55:22;28.60;;;4.17;;
19946;SDS011;10135;50.702;7.276;2023-10-19T08:57:23;4.87;;;2.23;;
19946;SDS011;10135;50.702;7.276;2023-10-19T08:59:24;3.50;;;2.20;;
19946;SDS011;10135;50.702;7.276;2023-10-19T09:01:27;4.77;;;2.30;;
19946;SDS011;10135;50.702;7.276;2023-10-19T09:03:28;3.10;;;1.67;;
19946;SDS011;10135;50.702;7.276;2023-10-19T09:05:29;6.10;;;2.13;;
19946;SDS011;10135;50.702;7.276;2023-10-19T09:07:30;2.50;;;1.67;;
19946;SDS011;10135;50.702;7.276;2023-10-19T09:09:31;1.95;;;1.70;;
19946;SDS011;10135;50.702;7.276;2023-10-19T09:11:32;2.90;;;1.70;;
19946;SDS011;10135;50.702;7.276;2023-10-19T09:13:52;5.03;;;1.85;;
19946;SDS011;10135;50.702;7.276;2023-10-19T09:15:53;3.08;;;2.28;;
19946;SDS011;10135;50.702;7.276;2023-10-19T09:17:55;2.40;;;1.80;;
19946;SDS011;10135;50.702;7.276;2023-10-19T09:19:55;2.35;;;1.77;;
19946;SDS011;10135;50.702;7.276;2023-10-19T09:21:56;2.97;;;1.67;;
19946;SDS011;10135;50.702;7.276;2023-10-19T09:23:58;2.45;;;1.80;;
19946;SDS011;10135;50.702;7.276;2023-10-19T09:26:00;4.07;;;1.83;;
19946;SDS011;10135;50.702;7.276;2023-10-19T09:28:05;2.00;;;1.50;;
19946;SDS011;10135;50.702;7.276;2023-10-19T09:30:06;4.63;;;1.50;;
19946;SDS011;10135;50.702;7.276;2023-10-19T09:32:10;3.40;;;1.38;;
19946;SDS011;10135;50.702;7.276;2023-10-19T09:34:13;5.43;;;1.60;;
19946;SDS011;10135;50.702;7.276;2023-10-19T09:36:17;2.28;;;1.50;;
19946;SDS011;10135;50.702;7.276;2023-10-19T09:38:18;3.53;;;1.85;;
19946;SDS011;10135;50.702;7.276;2023-10-19T09:40:22;4.47;;;1.65;;
19946;SDS011;10135;50.702;7.276;2023-10-19T09:42:23;4.55;;;1.60;;
19946;SDS011;10135;50.702;7.276;2023-10-19T09:44:28;3.53;;;1.40;;
19946;SDS011;10135;50.702;7.276;2023-10-19T09:46:32;2.38;;;1.27;;
19946;SDS011;10135;50.702;7.276;2023-10-19T09:48:39;1.48;;;1.20;;
19946;SDS011;10135;50.702;7.276;2023-10-19T09:50:56;3.67;;;1.25;;
19946;SDS011;10135;50.702;7.276;2023-10-19T09:52:58;2.70;;;1.17;;
19946;SDS011;10135;50.702;7.276;2023-10-19T09:55:03;1.50;;;1.33;;
19946;SDS011;10135;50.702;7.276;2023-10-19T09:57:27;1.90;;;1.20;;
19946;SDS011;10135;50.702;7.276;2023-10-19T09:59:37;4.20;;;1.35;;
19946;SDS011;10135;50.702;7.276;2023-10-19T10:02:02;2.42;;;1.58;;
19946;SDS011;10135;50.702;7.276;2023-10-19T10:04:28;5.03;;;1.70;;
19946;SDS011;10135;50.702;7.276;2023-10-19T10:08:50;3.22;;;1.50;;
19946;SDS011;10135;50.702;7.276;2023-10-19T10:10:51;3.38;;;1.30;;
19946;SDS011;10135;50.702;7.276;2023-10-19T10:12:52;2.08;;;1.30;;
19946;SDS011;10135;50.702;7.276;2023-10-19T10:14:56;3.13;;;1.55;;
19946;SDS011;10135;50.702;7.276;2023-10-19T10:17:08;3.03;;;1.40;;
19946;SDS011;10135;50.702;7.276;2023-10-19T10:19:20;1.90;;;1.27;;
19946;SDS011;10135;50.702;7.276;2023-10-19T10:21:21;5.88;;;1.50;;
19946;SDS011;10135;50.702;7.276;2023-10-19T10:23:24;2.47;;;1.30;;
19946;SDS011;10135;50.702;7.276;2023-10-19T10:25:27;3.80;;;1.33;;
19946;SDS011;10135;50.702;7.276;2023-10-19T10:27:29;3.72;;;1.48;;
19946;SDS011;10135;50.702;7.276;2023-10-19T10:29:30;3.67;;;1.38;;
19946;SDS011;10135;50.702;7.276;2023-10-19T10:31:31;2.72;;;1.50;;
19946;SDS011;10135;50.702;7.276;2023-10-19T10:33:42;3.60;;;1.50;;
19946;SDS011;10135;50.702;7.276;2023-10-19T10:35:56;3.20;;;1.50;;
19946;SDS011;10135;50.702;7.276;2023-10-19T10:37:57;4.82;;;1.75;;
19946;SDS011;10135;50.702;7.276;2023-10-19T10:39:58;5.60;;;1.42;;
19946;SDS011;10135;50.702;7.276;2023-10-19T10:42:00;5.72;;;1.70;;
19946;SDS011;10135;50.702;7.276;2023-10-19T10:44:04;1.60;;;1.20;;
19946;SDS011;10135;50.702;7.276;2023-10-19T10:46:05;1.50;;;1.30;;
19946;SDS011;10135;50.702;7.276;2023-10-19T10:48:11;2.00;;;1.35;;
19946;SDS011;10135;50.702;7.276;2023-10-19T10:50:19;3.38;;;1.45;;
19946;SDS011;10135;50.702;7.276;2023-10-19T10:54:29;1.42;;;1.30;;
19946;SDS011;10135;50.702;7.276;2023-10-19T10:56:29;3.03;;;1.38;;
19946;SDS011;10135;50.702;7.276;2023-10-19T10:58:31;4.53;;;1.80;;
19946;SDS011;10135;50.702;7.276;2023-10-19T11:00:32;2.08;;;1.20;;
19946;SDS011;10135;50.702;7.276;2023-10-19T11:02:37;2.90;;;1.70;;
19946;SDS011;10135;50.702;7.276;2023-10-19T11:04:45;2.65;;;1.33;;
19946;SDS011;10135;50.702;7.276;2023-10-19T11:06:52;3.40;;;1.40;;
19946;SDS011;10135;50.702;7.276;2023-10-19T11:08:56;4.18;;;1.70;;
19946;SDS011;10135;50.702;7.276;2023-10-19T11:10:57;3.55;;;1.67;;
19946;SDS011;10135;50.702;7.276;2023-10-19T11:13:12;4.38;;;1.40;;
19946;SDS011;10135;50.702;7.276;2023-10-19T11:15:22;125.35;;;11.77;;
19946;SDS011;10135;50.702;7.276;2023-10-19T11:17:23;29.17;;;4.32;;
19946;SDS011;10135;50.702;7.276;2023-10-19T11:19:37;6.07;;;2.50;;
19946;SDS011;10135;50.702;7.276;2023-10-19T11:21:51;8.63;;;2.20;;
19946;SDS011;10135;50.702;7.276;2023-10-19T11:23:54;5.30;;;1.83;;
19946;SDS011;10135;50.702;7.276;2023-10-19T11:25:59;3.85;;;1.70;;
19946;SDS011;10135;50.702;7.276;2023-10-19T11:28:02;9.93;;;2.05;;
19946;SDS011;10135;50.702;7.276;2023-10-19T11:30:25;2.03;;;1.33;;
19946;SDS011;10135;50.702;7.276;2023-10-19T11:32:35;7.80;;;2.08;;
19946;SDS011;10135;50.702;7.276;2023-10-19T11:34:40;4.60;;;1.63;;
19946;SDS011;10135;50.702;7.276;2023-10-19T11:36:44;5.75;;;1.83;;
19946;SDS011;10135;50.702;7.276;2023-10-19T11:38:45;2.50;;;1.53;;
19946;SDS011;10135;50.702;7.276;2023-10-19T11:40:48;8.02;;;2.05;;
19946;SDS011;10135;50.702;7.276;2023-10-19T11:42:49;54.53;;;6.93;;
19946;SDS011;10135;50.702;7.276;2023-10-19T11:44:50;57.70;;;6.47;;
19946;SDS011;10135;50.702;7.276;2023-10-19T11:46:52;15.40;;;2.65;;
19946;SDS011;10135;50.702;7.276;2023-10-19T11:48:53;7.28;;;2.22;;
19946;SDS011;10135;50.702;7.276;2023-10-19T11:50:54;6.80;;;2.00;;
19946;SDS011;10135;50.702;7.276;2023-10-19T11:52:54;3.90;;;2.00;;
19946;SDS011;10135;50.702;7.276;2023-10-19T11:54:56;3.72;;;1.80;;
19946;SDS011;10135;50.702;7.276;2023-10-19T11:56:56;3.20;;;1.60;;
19946;SDS011;10135;50.702;7.276;2023-10-19T11:58:57;3.55;;;1.70;;
19946;SDS011;10135;50.702;7.276;2023-10-19T12:00:58;3.60;;;1.87;;
19946;SDS011;10135;50.702;7.276;2023-10-19T12:02:59;3.80;;;2.17;;
19946;SDS011;10135;50.702;7.276;2023-10-19T12:05:01;4.43;;;1.80;;
19946;SDS011;10135;50.702;7.276;2023-10-19T12:07:02;5.57;;;2.30;;
19946;SDS011;10135;50.702;7.276;2023-10-19T12:09:03;3.87;;;2.10;;
19946;SDS011;10135;50.702;7.276;2023-10-19T12:11:14;5.20;;;2.30;;
19946;SDS011;10135;50.702;7.276;2023-10-19T12:13:16;21.93;;;3.57;;
19946;SDS011;10135;50.702;7.276;2023-10-19T12:15:17;13.23;;;3.13;;
19946;SDS011;10135;50.702;7.276;2023-10-19T12:17:18;4.05;;;2.00;;
19946;SDS011;10135;50.702;7.276;2023-10-19T12:19:19;6.77;;;1.77;;
19946;SDS011;10135;50.702;7.276;2023-10-19T12:21:19;4.77;;;1.80;;
19946;SDS011;10135;50.702;7.276;2023-10-19T12:23:27;2.90;;;1.67;;
19946;SDS011;10135;50.702;7.276;2023-10-19T12:25:30;1.50;;;1.40;;
19946;SDS011;10135;50.702;7.276;2023-10-19T12:27:31;3.27;;;1.97;;
19946;SDS011;10135;50.702;7.276;2023-10-19T12:29:32;1.53;;;1.43;;
19946;SDS011;10135;50.702;7.276;2023-10-19T12:31:33;2.37;;;1.57;;
19946;SDS011;10135;50.702;7.276;2023-10-19T12:33:37;6.27;;;2.10;;
19946;SDS011;10135;50.702;7.276;2023-10-19T12:35:41;3.43;;;1.97;;
19946;SDS011;10135;50.702;7.276;2023-10-19T12:37:53;2.23;;;1.60;;
19946;SDS011;10135;50.702;7.276;2023-10-19T12:39:55;4.40;;;1.80;;
19946;SDS011;10135;50.702;7.276;2023-10-19T12:41:56;3.47;;;1.55;;
19946;SDS011;10135;50.702;7.276;2023-10-19T12:43:57;3.17;;;1.67;;
19946;SDS011;10135;50.702;7.276;2023-10-19T12:46:00;2.10;;;1.50;;
19946;SDS011;10135;50.702;7.276;2023-10-19T12:48:01;3.10;;;1.67;;
19946;SDS011;10135;50.702;7.276;2023-10-19T12:50:04;2.37;;;1.80;;
19946;SDS011;10135;50.702;7.276;2023-10-19T12:52:07;3.43;;;1.73;;
19946;SDS011;10135;50.702;7.276;2023-10-19T12:54:11;3.83;;;1.97;;
19946;SDS011;10135;50.702;7.276;2023-10-19T12:56:13;2.33;;;1.90;;
19946;SDS011;10135;50.702;7.276;2023-10-19T12:58:14;2.90;;;1.60;;
19946;SDS011;10135;50.702;7.276;2023-10-19T13:00:19;6.47;;;1.70;;
19946;SDS011;10135;50.702;7.276;2023-10-19T13:02:26;2.47;;;1.70;;
19946;SDS011;10135;50.702;7.276;2023-10-19T13:04:30;4.03;;;1.83;;
19946;SDS011;10135;50.702;7.276;2023-10-19T13:06:31;4.00;;;1.60;;
19946;SDS011;10135;50.702;7.276;2023-10-19T13:08:33;3.70;;;1.90;;
19946;SDS011;10135;50.702;7.276;2023-10-19T13:10:34;4.83;;;1.83;;
19946;SDS011;10135;50.702;7.276;2023-10-19T13:12:37;3.00;;;1.80;;
19946;SDS011;10135;50.702;7.276;2023-10-19T13:14:38;4.40;;;1.70;;
19946;SDS011;10135;50.702;7.276;2023-10-19T13:16:39;6.10;;;1.63;;
19946;SDS011;10135;50.702;7.276;2023-10-19T13:18:40;2.85;;;1.38;;
19946;SDS011;10135;50.702;7.276;2023-10-19T13:20:41;3.30;;;1.65;;
19946;SDS011;10135;50.702;7.276;2023-10-19T13:22:44;1.87;;;1.47;;
19946;SDS011;10135;50.702;7.276;2023-10-19T14:51:52;3.00;;;2.60;;
19946;SDS011;10135;50.702;7.276;2023-10-19T14:54:06;2.70;;;2.50;;
19946;SDS011;10135;50.702;7.276;2023-10-19T14:56:17;3.53;;;2.50;;
19946;SDS011;10135;50.702;7.276;2023-10-19T14:58:42;2.73;;;2.53;;
19946;SDS011;10135;50.702;7.276;2023-10-19T15:01:05;2.97;;;2.73;;
19946;SDS011;10135;50.702;7.276;2023-10-19T15:03:08;3.43;;;3.10;;
19946;SDS011;10135;50.702;7.276;2023-10-19T15:05:17;5.27;;;3.97;;
19946;SDS011;10135;50.702;7.276;2023-10-19T15:07:27;3.67;;;3.37;;
19946;SDS011;10135;50.702;7.276;2023-10-19T15:09:36;3.40;;;3.07;;
19946;SDS011;10135;50.702;7.276;2023-10-19T15:11:37;4.20;;;3.03;;
19946;SDS011;10135;50.702;7.276;2023-10-19T15:14:03;3.53;;;3.20;;
19946;SDS011;10135;50.702;7.276;2023-10-19T15:16:34;4.33;;;3.33;;
19946;SDS011;10135;50.702;7.276;2023-10-19T15:32:28;4.43;;;2.90;;
19946;SDS011;10135;50.702;7.276;2023-10-19T16:17:54;4.73;;;2.80;;
19946;SDS011;10135;50.702;7.276;2023-10-19T16:23:14;3.00;;;2.80;;
19946;SDS011;10135;50.702;7.276;2023-10-19T16:25:15;3.67;;;3.07;;
19946;SDS011;10135;50.702;7.276;2023-10-19T16:38:15;2.40;;;2.20;;
19946;SDS011;10135;50.702;7.276;2023-10-19T16:40:16;5.37;;;2.77;;
19946;SDS011;10135;50.702;7.276;2023-10-19T16:45:38;2.50;;;2.40;;
19946;SDS011;10135;50.702;7.276;2023-10-19T16:47:39;2.63;;;2.33;;
19946;SDS011;10135;50.702;7.276;2023-10-19T16:49:44;2.93;;;2.63;;
19946;SDS011;10135;50.702;7.276;2023-10-19T16:51:45;7.07;;;2.73;;
19946;SDS011;10135;50.702;7.276;2023-10-19T16:53:46;3.47;;;3.10;;
19946;SDS011;10135;50.702;7.276;2023-10-19T16:55:48;3.60;;;2.93;;
19946;SDS011;10135;50.702;7.276;2023-10-19T16:57:49;3.20;;;3.00;;
19946;SDS011;10135;50.702;7.276;2023-10-19T16:59:50;3.03;;;2.73;;
19946;SDS011;10135;50.702;7.276;2023-10-19T17:01:51;3.30;;;2.97;;
19946;SDS011;10135;50.702;7.276;2023-10-19T17:03:52;3.03;;;2.83;;
19946;SDS011;10135;50.702;7.276;2023-10-19T17:05:53;4.40;;;3.30;;
19946;SDS011;10135;50.702;7.276;2023-10-19T17:07:54;3.73;;;2.93;;
19946;SDS011;10135;50.702;7.276;2023-10-19T17:09:55;4.60;;;3.20;;
19946;SDS011;10135;50.702;7.276;2023-10-19T17:11:55;3.37;;;3.07;;
19946;SDS011;10135;50.702;7.276;2023-10-19T17:13:56;3.00;;;2.80;;
19946;SDS011;10135;50.702;7.276;2023-10-19T17:15:58;4.03;;;3.07;;
19946;SDS011;10135;50.702;7.276;2023-10-19T17:18:01;3.27;;;2.97;;
19946;SDS011;10135;50.702;7.276;2023-10-19T17:20:02;3.10;;;2.90;;
19946;SDS011;10135;50.702;7.276;2023-10-19T17:22:04;3.53;;;3.20;;
19946;SDS011;10135;50.702;7.276;2023-10-19T17:24:05;9.00;;;5.10;;
19946;SDS011;10135;50.702;7.276;2023-10-19T17:26:07;5.77;;;4.13;;
19946;SDS011;10135;50.702;7.276;2023-10-19T17:28:07;5.40;;;4.10;;
19946;SDS011;10135;50.702;7.276;2023-10-19T17:30:08;4.50;;;4.00;;
19946;SDS011;10135;50.702;7.276;2023-10-19T17:32:13;5.67;;;3.30;;
19946;SDS011;10135;50.702;7.276;2023-10-19T17:34:13;4.77;;;3.53;;
19946;SDS011;10135;50.702;7.276;2023-10-19T17:36:14;3.33;;;3.13;;
19946;SDS011;10135;50.702;7.276;2023-10-19T17:38:15;3.13;;;2.83;;
19946;SDS011;10135;50.702;7.276;2023-10-19T17:40:15;3.83;;;3.50;;
19946;SDS011;10135;50.702;7.276;2023-10-19T17:42:16;4.03;;;3.17;;
19946;SDS011;10135;50.702;7.276;2023-10-19T17:44:17;5.37;;;3.17;;
19946;SDS011;10135;50.702;7.276;2023-10-19T17:46:18;3.40;;;3.10;;
19946;SDS011;10135;50.702;7.276;2023-10-19T17:48:19;4.07;;;3.67;;
19946;SDS011;10135;50.702;7.276;2023-10-19T17:50:19;3.80;;;3.10;;
19946;SDS011;10135;50.702;7.276;2023-10-19T17:52:20;3.40;;;3.20;;
19946;SDS011;10135;50.702;7.276;2023-10-19T17:54:21;3.27;;;3.00;;
19946;SDS011;10135;50.702;7.276;2023-10-19T17:56:21;3.43;;;3.23;;
19946;SDS011;10135;50.702;7.276;2023-10-19T17:58:22;3.33;;;3.13;;
19946;SDS011;10135;50.702;7.276;2023-10-19T18:00:24;6.40;;;3.57;;
19946;SDS011;10135;50.702;7.276;2023-10-19T18:02:25;4.47;;;3.30;;
19946;SDS011;10135;50.702;7.276;2023-10-19T18:04:27;3.60;;;3.30;;
19946;SDS011;10135;50.702;7.276;2023-10-19T18:06:27;3.60;;;3.40;;
19946;SDS011;10135;50.702;7.276;2023-10-19T18:08:28;3.70;;;3.40;;
19946;SDS011;10135;50.702;7.276;2023-10-19T18:10:29;3.20;;;3.00;;
19946;SDS011;10135;50.702;7.276;2023-10-19T18:12:33;4.07;;;3.37;;
19946;SDS011;10135;50.702;7.276;2023-10-19T18:14:35;2.90;;;2.80;;
19946;SDS011;10135;50.702;7.276;2023-10-19T18:16:36;3.23;;;3.00;;
19946;SDS011;10135;50.702;7.276;2023-10-19T18:18:36;3.27;;;3.00;;
19946;SDS011;10135;50.702;7.276;2023-10-19T18:20:37;3.30;;;3.00;;
19946;SDS011;10135;50.702;7.276;2023-10-19T18:22:38;3.87;;;3.37;;
19946;SDS011;10135;50.702;7.276;2023-10-19T18:24:39;4.37;;;3.10;;
19946;SDS011;10135;50.702;7.276;2023-10-19T18:26:39;2.80;;;2.60;;
19946;SDS011;10135;50.702;7.276;2023-10-19T18:28:43;2.90;;;2.70;;
19946;SDS011;10135;50.702;7.276;2023-10-19T18:30:53;3.10;;;2.83;;
19946;SDS011;10135;50.702;7.276;2023-10-19T18:32:55;3.30;;;3.10;;
19946;SDS011;10135;50.702;7.276;2023-10-19T18:34:56;3.20;;;3.00;;
19946;SDS011;10135;50.702;7.276;2023-10-19T18:36:56;3.27;;;2.93;;
19946;SDS011;10135;50.702;7.276;2023-10-19T18:38:59;3.87;;;3.00;;
19946;SDS011;10135;50.702;7.276;2023-10-19T18:41:02;4.63;;;3.20;;
19946;SDS011;10135;50.702;7.276;2023-10-19T18:43:06;5.53;;;3.40;;
19946;SDS011;10135;50.702;7.276;2023-10-19T18:45:07;3.40;;;3.10;;
19946;SDS011;10135;50.702;7.276;2023-10-19T18:47:09;3.13;;;2.93;;
19946;SDS011;10135;50.702;7.276;2023-10-19T18:49:09;4.10;;;3.20;;
19946;SDS011;10135;50.702;7.276;2023-10-19T18:51:10;3.77;;;3.10;;
19946;SDS011;10135;50.702;7.276;2023-10-19T18:53:12;3.43;;;3.13;;
19946;SDS011;10135;50.702;7.276;2023-10-19T18:55:13;2.97;;;2.77;;
19946;SDS011;10135;50.702;7.276;2023-10-19T18:57:17;3.10;;;2.90;;
19946;SDS011;10135;50.702;7.276;2023-10-19T18:59:18;3.07;;;2.77;;
19946;SDS011;10135;50.702;7.276;2023-10-19T19:01:19;3.60;;;3.30;;
19946;SDS011;10135;50.702;7.276;2023-10-19T19:03:21;3.20;;;3.00;;
19946;SDS011;10135;50.702;7.276;2023-10-19T19:05:22;3.57;;;2.63;;
19946;SDS011;10135;50.702;7.276;2023-10-19T19:07:22;2.93;;;2.60;;
19946;SDS011;10135;50.702;7.276;2023-10-19T19:09:23;2.80;;;2.60;;
19946;SDS011;10135;50.702;7.276;2023-10-19T19:11:32;3.23;;;2.90;;
19946;SDS011;10135;50.702;7.276;2023-10-19T19:14:21;3.33;;;3.03;;
19946;SDS011;10135;50.702;7.276;2023-10-19T19:16:25;4.60;;;3.13;;
19946;SDS011;10135;50.702;7.276;2023-10-19T19:18:25;3.30;;;3.00;;
19946;SDS011;10135;50.702;7.276;2023-10-19T19:20:29;3.97;;;3.10;;
19946;SDS011;10135;50.702;7.276;2023-10-19T19:22:30;4.03;;;3.30;;
19946;SDS011;10135;50.702;7.276;2023-10-19T19:24:33;4.30;;;3.83;;
19946;SDS011;10135;50.702;7.276;2023-10-19T19:26:38;3.70;;;3.40;;
19946;SDS011;10135;50.702;7.276;2023-10-19T19:28:38;7.27;;;3.63;;
19946;SDS011;10135;50.702;7.276;2023-10-19T19:30:42;3.97;;;3.67;;
19946;SDS011;10135;50.702;7.276;2023-10-19T19:32:43;3.50;;;3.20;;
19946;SDS011;10135;50.702;7.276;2023-10-19T19:34:44;3.43;;;3.07;;
19946;SDS011;10135;50.702;7.276;2023-10-19T19:36:46;3.70;;;3.40;;
19946;SDS011;10135;50.702;7.276;2023-10-19T19:38:46;4.03;;;3.67;;
19946;SDS011;10135;50.702;7.276;2023-10-19T19:40:49;4.67;;;4.10;;
19946;SDS011;10135;50.702;7.276;2023-10-19T19:42:58;6.23;;;3.40;;
19946;SDS011;10135;50.702;7.276;2023-10-19T19:44:58;5.37;;;3.30;;
19946;SDS011;10135;50.702;7.276;2023-10-19T19:46:59;4.00;;;3.70;;
19946;SDS011;10135;50.702;7.276;2023-10-19T19:49:00;3.87;;;3.40;;
19946;SDS011;10135;50.702;7.276;2023-10-19T19:51:01;4.03;;;3.73;;
19946;SDS011;10135;50.702;7.276;2023-10-19T19:53:03;3.50;;;3.30;;
19946;SDS011;10135;50.702;7.276;2023-10-19T19:55:04;3.70;;;3.40;;
19946;SDS011;10135;50.702;7.276;2023-10-19T19:57:06;3.77;;;3.40;;
19946;SDS011;10135;50.702;7.276;2023-10-19T19:59:07;3.70;;;3.40;;
19946;SDS011;10135;50.702;7.276;2023-10-19T20:01:09;3.70;;;3.40;;
19946;SDS011;10135;50.702;7.276;2023-10-19T20:03:11;3.17;;;2.97;;
19946;SDS011;10135;50.702;7.276;2023-10-19T20:05:12;3.80;;;3.50;;
19946;SDS011;10135;50.702;7.276;2023-10-19T20:07:14;3.80;;;3.30;;
19946;SDS011;10135;50.702;7.276;2023-10-19T20:09:15;4.27;;;3.60;;